Time;durP1;ratioP1;P1;durP2;ratioP2;P2;SDS_P1;SDS_P2;PMS_P1;PMS_P2;Temp;Humidity;BMP_temperature;BMP_pressure;BME280_temperature;BME280_humidity;BME280_pressure;Samples;Min_cycle;Max_cycle;Signal;HPM_P1;HPM_P2
2022/10/09 06:33:42;;;;;;;;;15.00;13.75;;;;;8.80;66.03;101988.63;2573744;23;46371;-86
2022/10/09 06:34:52;;;;;;;;;14.00;12.00;;;;;8.81;66.06;101987.78;2378919;28;45373;-86
2022/10/09 06:36:06;;;;;;;;;22.00;18.25;;;;;8.81;65.85;101987.78;2378951;28;45554;-87
2022/10/09 06:37:16;;;;;;;;;21.50;18.00;;;;;8.83;65.65;101991.25;2373953;28;45279;-87
2022/10/09 06:38:27;;;;;;;;;16.25;15.50;;;;;8.85;65.95;101990.38;2373572;28;46943;-87
2022/10/09 06:39:37;;;;;;;;;20.25;18.75;;;;;8.85;65.96;101990.38;2368956;28;44829;-87
2022/10/09 06:40:47;;;;;;;;;19.50;16.75;;;;;8.87;66.13;101987.72;2381626;28;46299;-88
2022/10/09 06:41:58;;;;;;;;;14.75;13.75;;;;;8.89;65.82;101988.56;2377747;28;45524;-87
2022/10/09 06:43:08;;;;;;;;;23.00;20.00;;;;;8.88;66.22;101986.84;2376589;28;45453;-86
2022/10/09 06:44:19;;;;;;;;;24.00;20.00;;;;;8.89;66.26;101991.19;2389444;28;45425;-87
2022/10/09 06:45:30;;;;;;;;;22.25;19.75;;;;;8.93;66.32;101992.94;2373628;28;48166;-86
2022/10/09 06:46:41;;;;;;;;;20.50;19.50;;;;;8.92;66.08;101985.94;2367340;28;45397;-87
2022/10/09 06:47:51;;;;;;;;;17.25;15.25;;;;;8.95;66.19;101992.94;2376438;28;47065;-86
2022/10/09 06:49:04;;;;;;;;;12.00;12.00;;;;;8.96;65.82;101992.06;2382989;28;45271;-87
2022/10/09 06:50:15;;;;;;;;;18.00;14.00;;;;;8.94;66.18;101984.19;2377337;28;47300;-87
2022/10/09 06:51:27;;;;;;;;;21.25;16.25;;;;;8.98;66.06;101991.19;2381859;28;45485;-87
2022/10/09 06:52:37;;;;;;;;;15.25;11.00;;;;;8.98;66.25;101982.44;2385296;28;46533;-87
2022/10/09 06:53:50;;;;;;;;;17.25;13.25;;;;;8.99;66.33;101987.66;2383885;28;45313;-87
2022/10/09 06:55:01;;;;;;;;;13.25;12.25;;;;;9.02;66.29;101991.13;2375352;28;47172;-84
2022/10/09 06:56:14;;;;;;;;;12.50;11.00;;;;;9.02;66.15;101989.38;2377830;28;45240;-87
2022/10/09 06:57:24;;;;;;;;;13.75;12.75;;;;;9.05;66.28;101991.13;2376833;28;46359;-87
2022/10/09 06:58:36;;;;;;;;;10.75;8.50;;;;;9.07;66.43;101989.34;2377575;28;45335;-87
2022/10/09 06:59:48;;;;;;;;;16.25;16.25;;;;;9.08;66.72;101991.13;2378892;28;45472;-87
2022/10/09 07:01:08;;;;;;;;;13.00;10.00;;;;;9.13;66.44;101997.19;2389909;28;45524;-86
2022/10/09 07:02:18;;;;;;;;;11.50;10.00;;;;;9.12;66.42;101990.19;2385909;28;45406;-86
2022/10/09 07:03:28;;;;;;;;;12.00;10.25;;;;;9.16;66.62;101986.66;2383529;28;45413;-88
2022/10/09 07:04:39;;;;;;;;;7.75;7.75;;;;;9.14;66.83;101985.81;2373586;28;47749;-86
2022/10/09 07:05:49;;;;;;;;;10.25;9.75;;;;;9.18;66.68;101977.06;2377293;28;45515;-86
2022/10/09 07:06:59;;;;;;;;;10.25;9.00;;;;;9.21;66.64;101981.41;2379853;28;48024;-87
2022/10/09 07:08:10;;;;;;;;;8.25;7.00;;;;;9.22;66.29;101976.16;2371990;28;45184;-87
2022/10/09 07:09:20;;;;;;;;;10.75;9.50;;;;;9.23;66.64;101983.13;2367411;28;46900;-86
2022/10/09 07:10:30;;;;;;;;;9.00;6.75;;;;;9.27;66.07;101985.72;2376849;28;45286;-86
2022/10/09 07:11:44;;;;;;;;;8.00;7.50;;;;;9.30;66.89;101980.47;2383488;28;46378;-87
2022/10/09 07:12:54;;;;;;;;;8.25;8.25;;;;;9.33;66.72;101975.19;2383416;28;44836;-86
2022/10/09 07:14:07;;;;;;;;;8.75;6.75;;;;;9.34;66.62;101976.94;2381124;28;46307;-86
2022/10/09 07:15:17;;;;;;;;;8.25;8.25;;;;;9.37;66.32;101976.03;2388232;28;45227;-86
2022/10/09 07:16:31;;;;;;;;;9.50;6.00;;;;;9.39;66.53;101975.13;2377376;28;48120;-86
2022/10/09 07:17:41;;;;;;;;;8.00;8.00;;;;;9.42;66.69;101969.88;2381844;28;45208;-86
2022/10/09 07:18:51;;;;;;;;;9.25;8.00;;;;;9.45;66.85;101980.34;2382959;28;46978;-87
2022/10/09 07:20:02;;;;;;;;;7.25;7.25;;;;;9.48;66.46;101970.72;2386122;28;44674;-87
2022/10/09 07:21:13;;;;;;;;;9.25;8.00;;;;;9.50;66.47;101972.44;2393236;28;45278;-87
2022/10/09 07:22:23;;;;;;;;;13.25;8.25;;;;;9.53;66.40;101968.91;2381068;28;45403;-87
2022/10/09 07:23:35;;;;;;;;;8.50;7.25;;;;;9.56;66.46;101966.25;2373914;28;47009;-87
2022/10/09 07:24:46;;;;;;;;;7.00;6.00;;;;;9.60;66.66;101975.84;2380202;28;45485;-86
2022/10/09 07:25:57;;;;;;;;;8.00;8.00;;;;;9.61;66.64;101963.56;2388504;28;46615;-87
2022/10/09 07:27:08;;;;;;;;;10.00;8.75;;;;;9.63;66.49;101962.69;2385664;28;45234;-86
2022/10/09 07:28:18;;;;;;;;;10.75;9.75;;;;;9.67;66.42;101967.03;2382070;28;46728;-87
2022/10/09 07:29:28;;;;;;;;;8.75;8.75;;;;;9.68;66.61;101966.13;2386035;28;45280;-87
2022/10/09 07:30:39;;;;;;;;;9.00;8.50;;;;;9.73;66.35;101954.75;2392769;28;45365;-87
2022/10/09 07:31:49;;;;;;;;;10.50;8.50;;;;;9.77;66.38;101959.06;2377662;28;44781;-87
2022/10/09 07:32:59;;;;;;;;;10.25;9.25;;;;;9.78;66.49;101966.91;2373953;28;47302;-87
2022/10/09 07:34:10;;;;;;;;;8.50;8.50;;;;;9.84;66.67;101963.38;2374490;28;44823;-86
2022/10/09 07:35:20;;;;;;;;;11.00;7.50;;;;;9.85;66.01;101964.25;2375326;28;46950;-87
2022/10/09 07:36:31;;;;;;;;;10.00;10.00;;;;;9.86;66.28;101963.34;2385754;28;45203;-86
2022/10/09 07:37:41;;;;;;;;;12.00;8.75;;;;;9.89;66.17;101969.44;2380261;28;47210;-87
2022/10/09 07:38:54;;;;;;;;;8.25;8.25;;;;;9.93;65.78;101956.25;2386059;28;44663;-86
2022/10/09 07:40:05;;;;;;;;;10.00;8.25;;;;;9.96;65.88;101958.88;2380888;28;47566;-86
2022/10/09 07:41:16;;;;;;;;;10.50;8.00;;;;;9.98;66.11;101955.34;2376896;28;45478;-86
2022/10/09 07:42:26;;;;;;;;;11.25;9.25;;;;;10.02;66.09;101958.81;2382541;28;47398;-86
2022/10/09 07:43:38;;;;;;;;;9.75;9.00;;;;;10.04;65.60;101956.16;2376229;28;45417;-86
2022/10/09 07:44:48;;;;;;;;;11.25;11.00;;;;;10.07;65.88;101962.25;2385837;28;46337;-86
2022/10/09 07:46:00;;;;;;;;;9.25;7.25;;;;;10.10;65.85;101956.94;2393317;28;45436;-86
2022/10/09 07:47:10;;;;;;;;;11.50;9.00;;;;;10.16;65.80;101961.28;2373915;28;47262;-87
2022/10/09 07:48:21;;;;;;;;;9.50;7.25;;;;;10.17;65.03;101957.78;2378305;28;45220;-87
2022/10/09 07:49:31;;;;;;;;;10.25;10.25;;;;;10.22;65.15;101957.72;2385516;28;47897;-87
2022/10/09 07:50:41;;;;;;;;;18.25;15.00;;;;;10.23;65.42;101957.69;2383324;28;45172;-87
2022/10/09 07:51:52;;;;;;;;;11.25;10.75;;;;;10.27;64.65;101953.28;2382782;28;46782;-90
2022/10/09 07:53:02;;;;;;;;;11.25;11.25;;;;;10.33;64.91;101960.19;2385757;28;45175;-87
2022/10/09 07:54:13;;;;;;;;;24.25;21.25;;;;;10.34;64.95;101954.06;2382067;28;47236;-87
2022/10/09 07:55:23;;;;;;;;;20.00;17.75;;;;;10.39;65.27;101957.50;2385437;28;45269;-87
2022/10/09 07:56:36;;;;;;;;;21.25;14.25;;;;;10.41;64.95;101947.84;2383085;28;47087;-87
2022/10/09 07:57:47;;;;;;;;;21.00;15.00;;;;;10.45;65.53;101952.16;2378880;28;45215;-87
2022/10/09 07:59:00;;;;;;;;;12.25;9.50;;;;;10.50;64.73;101957.34;2382816;28;47084;-87
2022/10/09 08:00:11;;;;;;;;;13.75;13.00;;;;;10.53;65.46;101951.22;2376792;28;44737;-87
2022/10/09 08:01:22;;;;;;;;;10.50;9.00;;;;;10.54;64.28;101945.94;2383323;28;46064;-87
2022/10/09 08:02:33;;;;;;;;;8.50;8.25;;;;;10.60;64.40;101949.38;2384475;28;45228;-87
2022/10/09 08:03:43;;;;;;;;;10.00;9.50;;;;;10.61;64.42;101943.25;2386399;28;45750;-84
2022/10/09 08:04:53;;;;;;;;;8.00;8.00;;;;;10.66;64.54;101950.19;2394708;28;44896;-84
2022/10/09 08:06:04;;;;;;;;;10.00;9.25;;;;;10.67;64.36;101951.91;2383045;28;47058;-84
2022/10/09 08:07:15;;;;;;;;;9.75;9.75;;;;;10.72;64.38;101948.38;2387342;28;45276;-84
2022/10/09 08:08:25;;;;;;;;;10.00;8.50;;;;;10.75;64.01;101941.28;2393575;28;45236;-84
2022/10/09 08:09:36;;;;;;;;;12.75;9.75;;;;;10.79;63.97;101950.00;2379371;28;44688;-84
2022/10/09 08:10:46;;;;;;;;;7.25;7.00;;;;;10.82;63.64;101942.06;2384027;28;45393;-84
2022/10/09 08:11:57;;;;;;;;;8.75;7.75;;;;;10.89;63.60;101942.84;2382334;28;45452;-83
2022/10/09 08:13:07;;;;;;;;;7.50;7.50;;;;;10.93;63.84;101941.03;2375322;28;47666;-85
2022/10/09 08:14:17;;;;;;;;;9.00;9.00;;;;;10.96;64.25;101944.50;2377060;28;45517;-84
2022/10/09 08:15:28;;;;;;;;;7.50;7.50;;;;;10.99;63.94;101947.06;2386003;28;46932;-85
2022/10/09 08:16:38;;;;;;;;;15.00;10.50;;;;;11.02;63.52;101935.63;2388833;28;45517;-85
2022/10/09 08:17:51;;;;;;;;;11.50;8.25;;;;;11.05;63.56;101932.09;2389394;28;45418;-86
2022/10/09 08:19:02;;;;;;;;;10.50;8.75;;;;;11.08;63.74;101929.41;2377487;28;45283;-86
2022/10/09 08:20:12;;;;;;;;;9.50;8.00;;;;;11.11;63.71;101937.25;2378025;28;45417;-84
2022/10/09 08:21:22;;;;;;;;;9.00;9.00;;;;;11.14;63.96;101930.16;2384015;28;45180;-84
2022/10/09 08:22:33;;;;;;;;;8.75;7.00;;;;;11.17;63.79;101937.16;2384008;28;47588;-84
2022/10/09 08:23:44;;;;;;;;;13.00;9.75;;;;;11.21;63.61;101938.81;2374710;28;45284;-83
2022/10/09 08:24:54;;;;;;;;;10.00;9.00;;;;;11.23;63.83;101936.19;2382574;28;45486;-87
2022/10/09 08:26:15;;;;;;;;;11.00;11.00;;;;;11.24;63.47;101928.25;2394055;28;45436;-84
2022/10/09 08:27:25;;;;;;;;;10.75;9.00;;;;;11.30;63.78;101935.19;2380511;28;48208;-86
2022/10/09 08:28:35;;;;;;;;;7.75;7.75;;;;;11.31;63.49;101929.00;2375320;28;44772;-87
2022/10/09 08:29:46;;;;;;;;;10.25;8.00;;;;;11.35;63.38;101929.84;2375086;28;47495;-85
2022/10/09 08:30:56;;;;;;;;;15.75;9.25;;;;;11.38;63.30;101929.81;2383105;28;45385;-84
2022/10/09 08:32:06;;;;;;;;;10.00;9.75;;;;;11.39;63.38;101923.63;2383772;28;47155;-84
2022/10/09 08:33:22;;;;;;;;;8.00;8.00;;;;;11.45;63.06;101928.81;2377571;28;45308;-84
2022/10/09 08:34:32;;;;;;;;;8.50;8.25;;;;;11.48;63.44;101926.09;2377395;28;47578;-84
2022/10/09 08:35:42;;;;;;;;;13.00;11.00;;;;;11.51;63.18;101929.59;2385777;28;45196;-85
2022/10/09 08:36:53;;;;;;;;;11.00;8.75;;;;;11.55;63.10;101928.63;2387859;28;45410;-85
2022/10/09 08:38:03;;;;;;;;;9.50;7.75;;;;;11.57;63.21;101924.19;2386159;28;45421;-85
2022/10/09 08:39:14;;;;;;;;;8.00;8.00;;;;;11.62;63.17;101925.00;2384392;28;47978;-84
2022/10/09 08:40:37;;;;;;;;;11.00;11.00;;;;;11.64;62.82;101917.91;2377566;28;44728;-85
2022/10/09 08:41:51;;;;;;;;;7.25;5.00;;;;;11.66;62.85;101918.75;2388281;28;46480;-84
2022/10/09 08:43:05;;;;;;;;;11.00;8.00;;;;;11.72;63.03;101914.28;2387645;28;45472;-85
2022/10/09 08:44:47;;;;;;;;;3.50;3.50;;;;;11.75;62.86;101914.22;2384287;28;47041;-85
2022/10/09 08:46:12;;;;;;;;;11.50;9.50;;;;;11.78;62.48;101919.41;2366522;28;45350;-85
2022/10/09 08:47:39;;;;;;;;;9.50;8.00;;;;;11.83;62.61;101922.84;2388039;28;46613;-85
2022/10/09 08:48:52;;;;;;;;;8.50;8.00;;;;;11.86;62.81;101914.00;2393882;28;45233;-85
2022/10/09 08:50:18;;;;;;;;;9.75;9.75;;;;;11.85;62.11;101907.91;2381110;28;48056;-86
2022/10/09 08:51:35;;;;;;;;;12.00;8.50;;;;;11.92;62.20;101911.28;2379338;28;45315;-86
2022/10/09 08:52:51;;;;;;;;;10.25;8.75;;;;;11.95;62.58;101905.06;2377891;28;47599;-85
2022/10/09 08:54:12;;;;;;;;;8.00;8.00;;;;;11.98;62.48;101907.63;2387518;28;45190;-85
2022/10/09 08:55:26;;;;;;;;;8.75;8.00;;;;;11.99;62.09;101904.97;2393642;28;45449;-85
2022/10/09 08:56:37;;;;;;;;;8.25;6.00;;;;;12.03;62.56;101909.28;2384236;28;44761;-85
2022/10/09 08:57:51;;;;;;;;;7.75;6.75;;;;;12.06;62.42;101903.06;2377708;28;47235;-85
2022/10/09 08:59:01;;;;;;;;;10.25;8.50;;;;;12.10;62.01;101899.47;2378438;28;45286;-85
2022/10/09 09:00:20;;;;;;;;;9.50;9.50;;;;;12.14;62.01;101906.47;2392548;28;45354;-85
2022/10/09 09:01:51;;;;;;;;;7.00;7.00;;;;;12.18;62.42;101901.97;2394553;28;45472;-85
2022/10/09 09:03:13;;;;;;;;;4.25;4.25;;;;;12.21;62.05;101887.88;2388776;28;47225;-85
2022/10/09 09:04:47;;;;;;;;;9.25;9.25;;;;;12.25;62.02;101892.16;2390746;28;45183;-85
2022/10/09 09:06:11;;;;;;;;;7.75;6.00;;;;;12.29;62.14;101893.84;2380273;28;46852;-84
2022/10/09 09:07:35;;;;;;;;;9.50;8.25;;;;;12.31;61.47;101885.91;2381025;28;45264;-84
2022/10/09 09:09:07;;;;;;;;;7.50;7.25;;;;;12.37;61.83;101883.16;2372545;28;47419;-85
2022/10/09 09:10:26;;;;;;;;;8.00;6.50;;;;;12.42;61.85;101877.78;2376919;28;45385;-85
2022/10/09 09:12:01;;;;;;;;;11.50;6.50;;;;;12.44;61.72;101882.09;2385050;28;45297;-85
2022/10/09 09:13:17;;;;;;;;;8.00;5.75;;;;;12.51;62.08;101876.69;2393795;28;45321;-85
2022/10/09 09:14:42;;;;;;;;;6.75;4.00;;;;;12.53;61.72;101874.88;2377003;28;47294;-85
2022/10/09 09:16:02;;;;;;;;;7.25;5.50;;;;;12.57;61.76;101877.41;2382326;28;45319;-85
2022/10/09 09:17:39;;;;;;;;;4.75;4.50;;;;;12.63;61.65;101867.59;2381664;28;47273;-84
2022/10/09 09:19:15;;;;;;;;;5.50;5.50;;;;;12.68;61.81;101860.47;2383956;28;45251;-85
2022/10/09 09:20:41;;;;;;;;;5.75;5.75;;;;;12.70;61.73;101862.16;2380563;28;47717;-85
2022/10/09 09:21:52;;;;;;;;;8.00;6.25;;;;;12.74;61.54;101862.94;2374961;28;45232;-85
2022/10/09 09:23:12;;;;;;;;;6.75;6.25;;;;;12.79;61.81;101860.22;2377716;28;45216;-85
2022/10/09 09:24:35;;;;;;;;;5.25;5.25;;;;;12.84;61.46;101858.31;2383583;28;45259;-85
2022/10/09 09:25:46;;;;;;;;;8.75;7.00;;;;;12.89;61.45;101858.22;2388247;28;47122;-85
2022/10/09 09:27:02;;;;;;;;;7.75;5.25;;;;;12.95;61.34;101855.41;2381349;28;45434;-85
2022/10/09 09:28:27;;;;;;;;;8.50;5.50;;;;;13.00;60.71;101853.53;2377713;28;47077;-85
2022/10/09 09:29:43;;;;;;;;;7.75;6.75;;;;;13.02;61.43;101849.06;2384114;28;45228;-85
2022/10/09 09:31:04;;;;;;;;;7.00;4.50;;;;;13.07;61.42;101853.34;2383909;28;47182;-85
2022/10/09 09:32:22;;;;;;;;;5.00;5.00;;;;;13.13;61.63;101848.81;2384337;28;45292;-85
2022/10/09 09:33:56;;;;;;;;;8.00;4.00;;;;;13.18;61.32;101848.69;2377037;28;47025;-84
2022/10/09 09:35:21;;;;;;;;;5.25;4.00;;;;;13.23;61.08;101849.44;2386597;28;44825;-85
2022/10/09 09:36:44;;;;;;;;;7.75;3.75;;;;;13.27;60.91;101840.50;2381373;28;46244;-85
2022/10/09 09:37:55;;;;;;;;;6.75;6.25;;;;;13.30;61.06;101844.84;2388426;28;46912;-86
2022/10/09 09:39:05;;;;;;;;;7.00;5.25;;;;;13.35;61.42;101844.72;2383469;28;47499;-87
2022/10/09 09:40:18;;;;;;;;;6.00;6.00;;;;;13.39;61.50;101843.72;2386858;28;45552;-84
2022/10/09 09:41:29;;;;;;;;;5.25;5.25;;;;;13.41;61.05;101836.63;2382266;28;47029;-85
2022/10/09 09:42:39;;;;;;;;;5.25;5.25;;;;;13.45;61.28;101838.28;2386363;28;45359;-87
2022/10/09 09:43:49;;;;;;;;;1.75;1.25;;;;;13.47;61.09;101828.53;2384035;28;47509;-86
2022/10/09 09:45:07;;;;;;;;;5.75;5.25;;;;;13.54;61.46;101829.22;2386715;28;45373;-87
2022/10/09 09:46:22;;;;;;;;;4.00;4.00;;;;;13.56;60.68;101824.81;2374346;28;47384;-85
2022/10/09 09:47:33;;;;;;;;;4.25;3.00;;;;;13.60;60.49;101826.47;2381270;28;44765;-89
2022/10/09 09:48:47;;;;;;;;;4.75;4.75;;;;;13.63;60.72;101828.13;2392790;28;46576;-86
2022/10/09 09:50:00;;;;;;;;;3.75;3.75;;;;;13.67;60.63;101819.22;2383092;28;45307;-88
2022/10/09 09:51:30;;;;;;;;;3.00;3.00;;;;;13.72;60.29;101827.00;2381486;28;47958;-88
2022/10/09 09:52:45;;;;;;;;;2.50;2.50;;;;;13.75;60.66;101813.72;2388991;28;45449;-87
2022/10/09 09:54:05;;;;;;;;;4.00;4.00;;;;;13.79;60.41;101823.28;2392977;28;45392;-88
2022/10/09 09:55:33;;;;;;;;;7.25;6.50;;;;;13.83;60.13;101819.63;2384084;28;45337;-87
2022/10/09 09:56:45;;;;;;;;;4.25;3.75;;;;;13.88;60.20;101813.38;2386306;28;45290;-90
2022/10/09 09:58:02;;;;;;;;;5.00;4.25;;;;;13.91;60.18;101814.13;2381137;28;45201;-89
2022/10/09 09:59:38;;;;;;;;;5.25;4.50;;;;;13.97;60.16;101822.78;2368848;28;47254;-89
2022/10/09 10:00:56;;;;;;;;;1.00;1.00;;;;;13.99;59.65;101816.53;2373980;28;45316;-89
2022/10/09 10:02:17;;;;;;;;;5.75;4.00;;;;;14.01;60.31;101811.19;2387662;28;46148;-88
2022/10/09 10:03:29;;;;;;;;;5.00;4.00;;;;;14.04;60.07;101811.97;2383706;28;45291;-88
2022/10/09 10:05:05;;;;;;;;;7.75;7.25;;;;;14.09;60.19;101810.97;2385554;28;46921;-91
2022/10/09 10:06:24;;;;;;;;;6.75;6.75;;;;;14.09;59.70;101798.63;2382864;28;45546;-88
2022/10/09 10:07:36;;;;;;;;;13.00;10.50;;;;;14.16;59.30;101810.72;2377067;28;48239;-91
2022/10/09 10:09:11;;;;;;;;;18.00;14.50;;;;;14.20;59.56;101808.84;2376700;28;45281;-89
2022/10/09 10:10:28;;;;;;;;;11.00;11.00;;;;;14.25;59.78;101806.06;2386594;28;46409;-89
2022/10/09 10:11:45;;;;;;;;;5.25;4.75;;;;;14.26;59.91;101798.09;2389950;28;45393;-89
2022/10/09 10:12:59;;;;;;;;;9.25;5.00;;;;;14.28;59.94;101805.97;2393739;28;45225;-89
2022/10/09 10:14:14;;;;;;;;;6.25;5.00;;;;;14.34;60.16;101805.78;2375750;28;45218;-89
2022/10/09 10:15:32;;;;;;;;;6.25;6.00;;;;;14.36;59.62;101792.50;2382478;28;47282;-89
2022/10/09 10:16:48;;;;;;;;;3.50;2.25;;;;;14.39;58.70;101790.63;2378109;28;44677;-89
2022/10/09 10:18:11;;;;;;;;;6.00;5.00;;;;;14.43;58.76;101786.09;2381173;28;48409;-89
2022/10/09 10:19:28;;;;;;;;;5.50;4.25;;;;;14.47;59.34;101785.06;2378590;28;45264;-88
2022/10/09 10:20:52;;;;;;;;;5.50;4.00;;;;;14.52;58.99;101787.56;2377351;28;47011;-88
2022/10/09 10:22:22;;;;;;;;;6.00;6.00;;;;;14.55;58.98;101779.53;2369610;28;45183;-88
2022/10/09 10:23:40;;;;;;;;;3.75;3.75;;;;;14.58;59.10;101776.78;2379913;28;46274;-88
2022/10/09 10:24:54;;;;;;;;;7.50;4.50;;;;;14.65;58.51;101781.88;2391067;28;45223;-86
2022/10/09 10:26:27;;;;;;;;;8.25;6.25;;;;;14.67;58.83;101772.97;2393035;28;46368;-90
2022/10/09 10:27:41;;;;;;;;;5.75;5.00;;;;;14.72;58.70;101771.03;2377475;28;44764;-87
2022/10/09 10:29:10;;;;;;;;;4.50;4.50;;;;;14.77;58.55;101770.88;2378297;28;46402;-89
2022/10/09 10:30:20;;;;;;;;;5.25;5.25;;;;;14.82;58.29;101763.63;2378119;28;45371;-90
2022/10/09 10:31:56;;;;;;;;;5.00;4.75;;;;;14.87;58.69;101770.56;2376398;28;47407;-88
2022/10/09 10:33:18;;;;;;;;;5.00;5.00;;;;;14.88;58.64;101753.78;2387304;28;45440;-88
2022/10/09 10:34:39;;;;;;;;;3.25;3.25;;;;;14.93;58.59;101762.44;2383006;28;48078;-88
2022/10/09 10:35:52;;;;;;;;;11.00;6.00;;;;;14.96;58.87;101759.69;2386592;28;45500;-88
2022/10/09 10:37:12;;;;;;;;;5.00;4.00;;;;;15.00;59.13;101755.13;2383006;28;47250;-88
2022/10/09 10:38:26;;;;;;;;;5.00;5.00;;;;;15.02;58.63;101748.88;2376667;28;45508;-88
2022/10/09 10:39:44;;;;;;;;;7.00;5.75;;;;;15.05;58.08;101753.19;2381833;28;46530;-89
2022/10/09 10:41:04;;;;;;;;;7.50;5.50;;;;;15.09;58.23;101743.38;2383075;28;45284;-88
2022/10/09 10:42:21;;;;;;;;;4.25;4.25;;;;;15.13;58.02;101742.34;2382831;28;47418;-88
2022/10/09 10:43:46;;;;;;;;;5.75;4.50;;;;;15.18;58.69;101748.34;2373610;28;45207;-88
2022/10/09 10:45:08;;;;;;;;;14.25;12.25;;;;;15.21;57.93;101745.53;2387148;28;45427;-88
2022/10/09 10:46:29;;;;;;;;;15.00;15.00;;;;;15.26;57.88;101745.41;2379458;28;45335;-87
2022/10/09 10:47:47;;;;;;;;;8.25;8.25;;;;;15.31;57.79;101743.44;2377697;28;48301;-88
2022/10/09 10:48:59;;;;;;;;;7.75;6.00;;;;;15.34;57.63;101731.84;2386834;28;45366;-88
2022/10/09 10:50:13;;;;;;;;;24.50;20.50;;;;;15.36;57.69;101733.53;2388671;28;45351;-87
2022/10/09 10:51:29;;;;;;;;;11.50;10.00;;;;;15.40;57.94;101732.50;2382828;28;45291;-87
2022/10/09 10:53:09;;;;;;;;;10.25;5.50;;;;;15.46;57.68;101736.69;2386230;28;45446;-88
2022/10/09 10:54:28;;;;;;;;;4.25;4.25;;;;;15.50;57.80;101738.31;2393065;28;45408;-89
2022/10/09 10:55:48;;;;;;;;;5.00;3.25;;;;;15.53;57.71;101727.59;2379113;28;47054;-88
2022/10/09 10:57:22;;;;;;;;;4.00;3.00;;;;;15.58;57.32;101723.91;2376670;28;45418;-88
2022/10/09 10:58:58;;;;;;;;;3.00;3.00;;;;;15.62;57.39;101731.69;2378857;28;47999;-89
2022/10/09 11:00:10;;;;;;;;;4.00;4.00;;;;;15.64;57.02;101719.25;2389571;28;45379;-88
2022/10/09 11:01:51;;;;;;;;;4.00;4.00;;;;;15.67;57.14;101714.75;2382636;28;47084;-89
2022/10/09 11:03:19;;;;;;;;;5.00;4.50;;;;;15.71;57.17;101709.25;2388769;28;45344;-88
2022/10/09 11:04:47;;;;;;;;;5.50;3.25;;;;;15.76;56.87;101701.13;2381767;28;47189;-89
2022/10/09 11:06:06;;;;;;;;;3.25;3.25;;;;;15.81;57.14;101711.53;2375698;28;45559;-89
2022/10/09 11:07:30;;;;;;;;;3.00;3.00;;;;;15.85;56.79;101705.22;2387029;28;47157;-88
2022/10/09 11:09:02;;;;;;;;;6.00;4.00;;;;;15.88;57.28;101699.75;2373985;28;45363;-88
2022/10/09 11:10:31;;;;;;;;;6.25;4.50;;;;;15.94;56.86;101696.88;2379295;28;47115;-88
2022/10/09 11:12:15;;;;;;;;;4.25;3.00;;;;;15.99;56.76;101696.69;2380111;28;45256;-88
2022/10/09 11:13:47;;;;;;;;;3.00;3.00;;;;;16.02;56.48;101696.56;2390285;28;45778;-88
2022/10/09 11:15:36;;;;;;;;;6.25;4.00;;;;;16.08;56.67;101690.16;2383320;28;45437;-88
2022/10/09 11:17:11;;;;;;;;;4.75;4.25;;;;;16.10;56.43;101683.00;2388349;28;45549;-88
2022/10/09 11:18:31;;;;;;;;;4.00;4.00;;;;;16.16;56.02;101692.50;2392312;28;45540;-88
2022/10/09 11:20:02;;;;;;;;;5.75;3.00;;;;;16.20;56.42;101688.78;2383053;28;47387;-88
2022/10/09 11:21:31;;;;;;;;;3.00;3.00;;;;;16.23;56.20;101683.38;2383259;28;45211;-88
2022/10/09 11:23:16;;;;;;;;;2.50;2.50;;;;;16.28;54.73;101677.84;2388419;28;45526;-89
2022/10/09 11:24:59;;;;;;;;;3.50;2.25;;;;;16.33;56.28;101678.53;2392961;28;44776;-88
2022/10/09 11:26:27;;;;;;;;;4.00;3.25;;;;;16.38;55.88;101681.84;2382164;28;47054;-89
2022/10/09 11:28:10;;;;;;;;;3.00;3.00;;;;;16.43;55.68;101676.34;2373751;28;45403;-89
2022/10/09 11:29:46;;;;;;;;;3.00;2.75;;;;;16.48;55.49;101665.53;2386297;28;45293;-88
2022/10/09 11:31:08;;;;;;;;;5.00;3.00;;;;;16.51;55.59;101660.09;2378241;28;45353;-87
2022/10/09 11:32:22;;;;;;;;;6.75;2.50;;;;;16.56;55.60;101665.22;2387169;28;46385;-87
2022/10/09 11:33:42;;;;;;;;;5.00;3.00;;;;;16.59;55.21;101668.59;2382099;28;45247;-88
2022/10/09 11:35:17;;;;;;;;;3.75;2.00;;;;;16.65;55.84;101662.13;2371092;28;47019;-88
2022/10/09 11:36:42;;;;;;;;;3.00;2.00;;;;;16.67;55.24;101654.13;2379496;28;44708;-88
2022/10/09 11:37:59;;;;;;;;;2.00;2.00;;;;;16.72;53.64;101657.41;2370117;28;46978;-88
2022/10/09 11:39:21;;;;;;;;;3.25;3.00;;;;;16.75;55.14;101650.19;2385275;28;44705;-88
2022/10/09 11:40:40;;;;;;;;;3.25;2.00;;;;;16.81;55.25;101653.50;2384157;28;48147;-88
2022/10/09 11:41:53;;;;;;;;;3.25;1.75;;;;;16.81;55.04;101657.03;2383778;28;45169;-88
2022/10/09 11:43:25;;;;;;;;;4.00;2.00;;;;;16.86;54.73;101655.03;2383810;28;46886;-88
2022/10/09 11:44:58;;;;;;;;;2.00;2.00;;;;;16.89;54.68;101648.69;2390511;28;45386;-88
2022/10/09 11:46:33;;;;;;;;;3.00;3.00;;;;;16.91;54.33;101646.00;2387545;28;45290;-88
2022/10/09 11:48:09;;;;;;;;;4.50;2.25;;;;;16.95;54.52;101642.25;2379388;28;45492;-88
2022/10/09 11:49:45;;;;;;;;;4.00;2.00;;;;;16.99;54.67;101641.16;2385677;28;47511;-87
2022/10/09 11:50:58;;;;;;;;;6.00;3.25;;;;;17.02;54.16;101633.06;2384583;28;45191;-88
2022/10/09 11:52:28;;;;;;;;;3.00;3.00;;;;;17.05;54.18;101627.63;2378138;28;47536;-88
2022/10/09 11:53:39;;;;;;;;;2.00;2.00;;;;;17.06;53.98;101624.00;2374481;28;45333;-89
2022/10/09 11:54:50;;;;;;;;;3.00;2.00;;;;;17.08;54.07;101621.31;2376420;28;47874;-89
2022/10/09 11:56:18;;;;;;;;;3.00;3.00;;;;;17.15;54.11;101628.09;2386644;28;45401;-88
2022/10/09 11:57:29;;;;;;;;;4.75;3.00;;;;;17.16;53.35;101627.13;2394475;28;46748;-88
2022/10/09 11:58:39;;;;;;;;;5.50;3.75;;;;;17.18;54.06;101627.09;2394749;28;44685;-88
2022/10/09 12:00:03;;;;;;;;;5.00;3.00;;;;;17.21;53.77;101621.63;2384206;28;47313;-88
2022/10/09 12:01:23;;;;;;;;;5.00;2.75;;;;;17.24;53.38;101625.91;2388877;28;45298;-88
2022/10/09 12:02:34;;;;;;;;;3.75;3.00;;;;;17.26;53.43;101619.59;2380833;28;45401;-90
2022/10/09 12:03:44;;;;;;;;;4.25;3.00;;;;;17.29;53.63;101623.91;2377640;28;45328;-88
2022/10/09 12:04:55;;;;;;;;;5.00;2.00;;;;;17.31;53.26;101624.69;2386624;28;46602;-90
2022/10/09 12:06:12;;;;;;;;;1.75;1.75;;;;;17.31;52.81;101612.28;2394613;28;45675;-89
2022/10/09 12:07:30;;;;;;;;;2.25;2.25;;;;;17.36;53.48;101616.53;2392297;28;45572;-89
2022/10/09 12:09:06;;;;;;;;;3.50;3.00;;;;;17.37;53.00;101612.91;2384344;28;45191;-89
2022/10/09 12:10:21;;;;;;;;;1.50;1.00;;;;;17.40;52.75;101610.13;2384147;28;48385;-89
2022/10/09 12:11:33;;;;;;;;;2.00;2.00;;;;;17.41;53.13;101601.19;2386423;28;45517;-89
2022/10/09 12:12:44;;;;;;;;;4.25;2.75;;;;;17.43;52.85;101599.34;2394496;28;45311;-90
2022/10/09 12:14:01;;;;;;;;;3.75;3.00;;;;;17.45;52.06;101601.91;2394515;28;44754;-90
2022/10/09 12:15:26;;;;;;;;;3.00;2.00;;;;;17.47;52.74;101592.94;2384362;28;46303;-90
2022/10/09 12:16:41;;;;;;;;;2.00;1.50;;;;;17.49;52.09;101591.06;2378853;28;44780;-90
2022/10/09 12:17:51;;;;;;;;;2.50;2.50;;;;;17.49;52.23;101591.06;2377292;28;47260;-89
2022/10/09 12:19:33;;;;;;;;;2.00;2.00;;;;;17.51;52.58;101594.50;2377080;28;45287;-90
2022/10/09 12:20:47;;;;;;;;;2.00;1.75;;;;;17.52;52.66;101587.41;2368766;28;45264;-90
2022/10/09 12:22:15;;;;;;;;;2.00;2.00;;;;;17.56;51.84;101588.13;2385146;28;45422;-89
2022/10/09 12:23:31;;;;;;;;;5.00;4.00;;;;;17.59;51.82;101585.28;2389955;28;45446;-89
2022/10/09 12:24:46;;;;;;;;;2.50;2.50;;;;;17.60;52.06;101587.03;2378173;28;45791;-88
2022/10/09 12:25:59;;;;;;;;;2.00;2.00;;;;;17.60;51.98;101582.56;2369181;28;47188;-89
2022/10/09 12:27:33;;;;;;;;;3.00;2.00;;;;;17.61;51.63;101570.13;2373458;28;45462;-90
2022/10/09 12:28:57;;;;;;;;;3.00;3.00;;;;;17.63;52.13;101578.91;2389476;28;45372;-90
2022/10/09 12:30:10;;;;;;;;;2.00;2.00;;;;;17.63;51.35;101574.44;2378914;28;45183;-90
2022/10/09 12:31:28;;;;;;;;;2.50;2.00;;;;;17.63;51.56;101569.09;2377841;28;46322;-89
2022/10/09 12:32:52;;;;;;;;;4.25;2.50;;;;;17.64;51.73;101564.66;2381974;28;45264;-89
2022/10/09 12:34:36;;;;;;;;;2.50;1.75;;;;;17.69;51.42;101564.44;2384687;28;46268;-89